createdAt,value
2017-04-15T00:00:06.792Z,8.99
2017-04-15T00:01:19.365Z,8.96
2017-04-15T00:02:31.880Z,8.92
2017-04-15T00:03:44.424Z,8.93
2017-04-15T00:04:56.953Z,8.96
2017-04-15T00:06:09.492Z,8.97
2017-04-15T00:07:22.101Z,8.89
2017-04-15T00:08:35.081Z,8.99
2017-04-15T00:09:47.026Z,8.87
2017-04-15T00:10:59.558Z,8.9
2017-04-15T00:12:11.797Z,8.82
2017-04-15T00:13:24.046Z,8.82
2017-04-15T00:14:36.596Z,8.84
2017-04-15T00:15:49.133Z,8.9
2017-04-15T00:17:01.687Z,8.92
2017-04-15T00:18:14.232Z,8.82
2017-04-15T00:19:26.769Z,8.78
2017-04-15T00:20:39.296Z,8.9
2017-04-15T00:21:51.518Z,8.79
2017-04-15T00:23:04.294Z,8.79
2017-04-15T00:24:16.867Z,8.9
2017-04-15T00:25:29.381Z,8.79
2017-04-15T00:26:41.900Z,8.77
2017-04-15T00:27:54.148Z,8.81
2017-04-15T00:29:06.668Z,8.86
2017-04-15T00:30:19.181Z,8.82
2017-04-15T00:31:31.727Z,8.87
2017-04-15T00:32:44.255Z,8.82
2017-04-15T00:33:56.798Z,8.74
2017-04-15T00:35:09.298Z,8.79
2017-04-15T00:36:21.814Z,8.77
2017-04-15T00:37:34.369Z,8.79
2017-04-15T00:38:46.888Z,8.72
2017-04-15T00:39:59.607Z,8.68
2017-04-15T00:41:11.823Z,8.72
2017-04-15T00:42:24.348Z,8.74
2017-04-15T00:43:36.874Z,8.69
2017-04-15T00:44:49.115Z,8.69
2017-04-15T00:46:01.637Z,8.68
2017-04-15T00:47:14.185Z,8.68
2017-04-15T00:48:26.747Z,8.68
2017-04-15T00:49:39.249Z,8.68
2017-04-15T00:50:51.773Z,8.66
2017-04-15T00:52:04.308Z,8.64
2017-04-15T00:53:16.889Z,8.74
2017-04-15T00:54:29.532Z,8.71
2017-04-15T00:55:42.082Z,8.66
2017-04-15T00:56:54.617Z,8.74
2017-04-15T00:58:07.177Z,8.72
2017-04-15T00:59:19.419Z,8.71
2017-04-15T01:00:31.983Z,8.74
2017-04-15T01:01:44.474Z,8.68
2017-04-15T01:02:56.725Z,8.68
2017-04-15T01:04:09.301Z,8.66
2017-04-15T01:05:21.816Z,8.69
2017-04-15T01:06:34.346Z,8.72
2017-04-15T01:07:46.570Z,8.68
2017-04-15T01:08:59.105Z,8.68
2017-04-15T01:10:11.734Z,8.63
2017-04-15T01:11:24.296Z,8.6
2017-04-15T01:12:37.123Z,8.6
2017-04-15T01:13:49.688Z,8.57
2017-04-15T01:15:02.213Z,8.53
2017-04-15T01:16:14.417Z,8.61
2017-04-15T01:17:27.199Z,8.6
2017-04-15T01:18:39.746Z,8.56
2017-04-15T01:19:52.271Z,8.52
2017-04-15T01:21:04.500Z,8.63
2017-04-15T01:22:17.038Z,8.6
2017-04-15T01:23:29.580Z,8.52
2017-04-15T01:24:42.133Z,8.61
2017-04-15T01:25:54.670Z,8.57
2017-04-15T01:27:06.999Z,8.56
2017-04-15T01:28:19.472Z,8.57
2017-04-15T01:29:32.014Z,8.57
2017-04-15T01:30:44.525Z,8.61
2017-04-15T01:31:56.739Z,8.56
2017-04-15T01:33:09.280Z,8.57
2017-04-15T01:34:21.815Z,8.54
2017-04-15T01:35:34.326Z,8.59
2017-04-15T01:36:46.834Z,8.63
2017-04-15T01:37:59.370Z,8.6
2017-04-15T01:39:12.205Z,8.56
2017-04-15T01:40:24.445Z,8.53
2017-04-15T01:41:36.972Z,8.61
2017-04-15T01:42:49.489Z,8.53
2017-04-15T01:44:02.143Z,8.6
2017-04-15T01:45:14.653Z,8.57
2017-04-15T01:46:27.160Z,8.56
2017-04-15T01:47:39.731Z,8.56
2017-04-15T01:48:51.969Z,8.56
2017-04-15T01:50:04.194Z,8.57
2017-04-15T01:51:16.118Z,8.61
2017-04-15T01:52:28.654Z,8.61
2017-04-15T01:53:41.160Z,8.59
2017-04-15T01:54:53.707Z,8.6
2017-04-15T01:56:06.266Z,8.63
2017-04-15T01:57:18.796Z,8.49
2017-04-15T01:58:30.995Z,8.57
2017-04-15T01:59:43.207Z,8.54
2017-04-15T02:00:55.749Z,8.6
2017-04-15T02:02:08.274Z,8.56
2017-04-15T02:03:20.785Z,8.57
2017-04-15T02:04:33.304Z,8.5
2017-04-15T02:05:45.847Z,8.59
2017-04-15T02:06:58.039Z,8.54
2017-04-15T02:08:10.604Z,8.54
2017-04-15T02:09:23.154Z,8.52
2017-04-15T02:10:35.678Z,8.59
2017-04-15T02:11:48.473Z,8.61
2017-04-15T02:13:01.036Z,8.66
2017-04-15T02:14:13.584Z,8.63
2017-04-15T02:15:26.203Z,8.49
2017-04-15T02:16:38.751Z,8.56
2017-04-15T02:17:51.275Z,8.56
2017-04-15T02:19:03.513Z,8.57
2017-04-15T02:20:16.038Z,8.53
2017-04-15T02:21:28.603Z,8.56
2017-04-15T02:22:41.139Z,8.5
2017-04-15T02:23:53.382Z,8.46
2017-04-15T02:25:05.904Z,8.6
2017-04-15T02:26:18.421Z,8.44
2017-04-15T02:27:30.942Z,8.49
2017-04-15T02:28:43.508Z,8.56
2017-04-15T02:29:55.754Z,8.42
2017-04-15T02:31:08.130Z,8.46
2017-04-15T02:32:20.654Z,8.42
2017-04-15T02:33:33.496Z,8.39
2017-04-15T02:34:46.034Z,8.38
2017-04-15T02:35:58.566Z,8.42
2017-04-15T02:37:11.067Z,8.39
2017-04-15T02:38:23.630Z,8.32
2017-04-15T02:39:35.876Z,8.28
2017-04-15T02:40:48.377Z,8.27
2017-04-15T02:42:00.595Z,8.31
2017-04-15T02:43:12.818Z,8.21
2017-04-15T02:44:25.364Z,8.24
2017-04-15T02:45:38.015Z,8.26
2017-04-15T02:46:50.974Z,8.09
2017-04-15T02:48:03.525Z,8.14
2017-04-15T02:49:16.023Z,8.06
2017-04-15T02:50:28.540Z,7.99
2017-04-15T02:51:41.057Z,7.98
2017-04-15T02:52:53.277Z,7.93
2017-04-15T02:54:05.804Z,7.96
2017-04-15T02:55:18.044Z,7.87
2017-04-15T02:56:30.561Z,7.83
2017-04-15T02:57:43.083Z,7.87
2017-04-15T02:58:55.603Z,7.77
2017-04-15T03:00:07.523Z,7.75
2017-04-15T03:01:20.028Z,7.67
2017-04-15T03:02:32.291Z,7.64
2017-04-15T03:03:44.994Z,7.59
2017-04-15T03:04:57.485Z,7.61
2017-04-15T03:06:10.290Z,7.66
2017-04-15T03:07:22.861Z,7.55
2017-04-15T03:08:34.809Z,7.51
2017-04-15T03:09:47.326Z,7.53
2017-04-15T03:10:59.873Z,7.44
2017-04-15T03:12:12.386Z,7.46
2017-04-15T03:13:24.891Z,7.4
2017-04-15T03:14:37.434Z,7.28
2017-04-15T03:15:49.959Z,7.32
2017-04-15T03:17:02.454Z,7.25
2017-04-15T03:18:14.962Z,7.19
2017-04-15T03:19:27.298Z,7.19
2017-04-15T03:20:39.812Z,7.15
2017-04-15T03:21:52.012Z,7.18
2017-04-15T03:23:04.547Z,7.13
2017-04-15T03:24:17.068Z,7.07
2017-04-15T03:25:29.587Z,7.04
2017-04-15T03:26:42.120Z,6.95
2017-04-15T03:27:54.658Z,6.86
2017-04-15T03:29:07.201Z,6.86
2017-04-15T03:30:19.735Z,6.8
2017-04-15T03:31:32.250Z,6.8
2017-04-15T03:32:44.789Z,6.78
2017-04-15T03:33:57.292Z,6.65
2017-04-15T03:35:09.818Z,6.65
2017-04-15T03:36:22.018Z,6.56
2017-04-15T03:37:34.551Z,6.6
2017-04-15T03:38:47.381Z,6.54
2017-04-15T03:39:59.914Z,6.57
2017-04-15T03:41:12.462Z,6.47
2017-04-15T03:42:24.981Z,6.5
2017-04-15T03:43:37.490Z,6.39
2017-04-15T03:44:50.306Z,6.43
2017-04-15T03:46:02.855Z,6.38
2017-04-15T03:47:15.422Z,6.25
2017-04-15T03:48:27.939Z,6.29
2017-04-15T03:49:40.485Z,6.28
2017-04-15T03:50:52.993Z,6.16
2017-04-15T03:52:05.216Z,6.19
2017-04-15T03:53:17.755Z,6.16
2017-04-15T03:54:30.344Z,6.13
2017-04-15T03:55:42.944Z,6.15
2017-04-15T03:56:55.464Z,6.06
2017-04-15T03:58:07.989Z,6.05
2017-04-15T03:59:20.524Z,6.05
2017-04-15T04:00:32.775Z,6.12
2017-04-15T04:01:45.297Z,6.07
2017-04-15T04:02:57.823Z,6.01
2017-04-15T04:04:10.040Z,5.97
2017-04-15T04:05:22.535Z,5.91
2017-04-15T04:06:35.053Z,5.92
2017-04-15T04:07:47.573Z,5.87
2017-04-15T04:09:00.124Z,5.94
2017-04-15T04:10:12.672Z,5.9
2017-04-15T04:11:25.211Z,5.91
2017-04-15T04:12:37.989Z,5.94
2017-04-15T04:13:50.499Z,5.81
2017-04-15T04:15:02.723Z,5.83
2017-04-15T04:16:15.216Z,5.88
2017-04-15T04:17:27.726Z,5.84
2017-04-15T04:18:40.261Z,5.73
2017-04-15T04:19:52.488Z,5.74
2017-04-15T04:21:04.723Z,5.76
2017-04-15T04:22:16.946Z,5.73
2017-04-15T04:23:29.473Z,5.72
2017-04-15T04:24:41.692Z,5.77
2017-04-15T04:25:54.196Z,5.72
2017-04-15T04:27:06.721Z,5.69
2017-04-15T04:28:19.229Z,5.61
2017-04-15T04:29:31.696Z,5.73
2017-04-15T04:30:43.918Z,5.61
2017-04-15T04:31:56.126Z,5.65
2017-04-15T04:33:08.894Z,5.58
2017-04-15T04:34:21.110Z,5.65
2017-04-15T04:35:33.659Z,5.58
2017-04-15T04:36:46.175Z,5.61
2017-04-15T04:37:58.675Z,5.64
2017-04-15T04:39:11.513Z,5.74
2017-04-15T04:40:24.045Z,5.69
2017-04-15T04:41:36.567Z,5.69
2017-04-15T04:42:49.127Z,5.73
2017-04-15T04:44:01.679Z,5.72
2017-04-15T04:45:13.925Z,5.74
2017-04-15T04:46:26.423Z,5.73
2017-04-15T04:47:38.935Z,5.76
2017-04-15T04:48:51.155Z,5.77
2017-04-15T04:50:03.713Z,5.74
2017-04-15T04:51:15.930Z,5.81
2017-04-15T04:52:28.501Z,5.87
2017-04-15T04:53:41.026Z,5.8
2017-04-15T04:54:53.569Z,5.9
2017-04-15T04:56:06.082Z,5.91
2017-04-15T04:57:18.585Z,5.99
2017-04-15T04:58:31.110Z,5.98
2017-04-15T04:59:43.672Z,6.07
2017-04-15T05:00:56.225Z,5.99
2017-04-15T05:02:08.443Z,6.13
2017-04-15T05:03:20.945Z,6.22
2017-04-15T05:04:33.687Z,6.16
2017-04-15T05:05:46.353Z,6.28
2017-04-15T05:06:58.894Z,6.29
2017-04-15T05:08:11.116Z,6.29
2017-04-15T05:09:23.648Z,6.49
2017-04-15T05:10:36.164Z,6.5
2017-04-15T05:11:48.685Z,6.54
2017-04-15T05:13:01.206Z,6.62
2017-04-15T05:14:13.750Z,6.59
2017-04-15T05:15:26.019Z,6.68
2017-04-15T05:16:38.544Z,6.8
2017-04-15T05:17:51.061Z,6.92
2017-04-15T05:19:03.619Z,6.86
2017-04-15T05:20:16.160Z,6.97
2017-04-15T05:21:28.131Z,7.08
2017-04-15T05:22:40.952Z,7.11
2017-04-15T05:23:53.489Z,7.15
2017-04-15T05:25:05.868Z,7.14
2017-04-15T05:26:18.429Z,7.25
2017-04-15T05:27:30.966Z,7.29
2017-04-15T05:28:43.507Z,7.39
2017-04-15T05:29:56.028Z,7.46
2017-04-15T05:31:08.269Z,7.51
2017-04-15T05:32:20.791Z,7.53
2017-04-15T05:33:33.292Z,7.67
2017-04-15T05:34:45.837Z,7.53
2017-04-15T05:35:58.037Z,7.62
2017-04-15T05:37:10.570Z,7.7
2017-04-15T05:38:23.396Z,7.75
2017-04-15T05:39:35.942Z,7.84
2017-04-15T05:40:48.443Z,7.93
2017-04-15T05:42:00.958Z,7.96
2017-04-15T05:43:13.479Z,8.01
2017-04-15T05:44:26.246Z,8.08
2017-04-15T05:45:38.795Z,8.13
2017-04-15T05:46:50.697Z,8.2
2017-04-15T05:48:02.913Z,8.18
2017-04-15T05:49:15.460Z,8.23
2017-04-15T05:50:28.024Z,8.31
2017-04-15T05:51:40.567Z,8.26
2017-04-15T05:52:53.096Z,8.41
2017-04-15T05:54:05.617Z,8.35
2017-04-15T05:55:18.148Z,8.45
2017-04-15T05:56:30.676Z,8.44
2017-04-15T05:57:43.230Z,8.54
2017-04-15T05:58:55.754Z,8.61
2017-04-15T06:00:08.242Z,8.53
2017-04-15T06:01:20.768Z,8.61
2017-04-15T06:02:33.011Z,8.69
2017-04-15T06:03:45.556Z,8.69
2017-04-15T06:04:58.239Z,8.81
2017-04-15T06:06:10.779Z,8.84
2017-04-15T06:07:22.972Z,8.86
2017-04-15T06:08:35.523Z,8.95
2017-04-15T06:09:48.059Z,8.96
2017-04-15T06:11:00.610Z,9.12
2017-04-15T06:12:13.130Z,9.05
2017-04-15T06:13:25.658Z,9.16
2017-04-15T06:14:38.201Z,9.13
2017-04-15T06:15:50.735Z,9.21
2017-04-15T06:17:03.264Z,9.21
2017-04-15T06:18:15.807Z,9.29
2017-04-15T06:19:28.356Z,9.31
2017-04-15T06:20:40.895Z,9.3
2017-04-15T06:21:53.426Z,9.31
2017-04-15T06:23:05.972Z,9.4
2017-04-15T06:24:18.540Z,9.34
2017-04-15T06:25:31.106Z,9.33
2017-04-15T06:26:43.306Z,9.34
2017-04-15T06:27:55.980Z,9.33
2017-04-15T06:29:08.498Z,9.34
2017-04-15T06:30:21.015Z,9.4
2017-04-15T06:31:33.568Z,9.4
2017-04-15T06:32:46.083Z,9.37
2017-04-15T06:33:58.629Z,9.42
2017-04-15T06:35:11.163Z,9.51
2017-04-15T06:36:23.715Z,9.49
2017-04-15T06:37:35.948Z,9.52
2017-04-15T06:38:48.516Z,9.45
2017-04-15T06:40:01.037Z,9.49
2017-04-15T06:41:13.578Z,9.47
2017-04-15T06:42:26.109Z,9.45
2017-04-15T06:43:38.905Z,9.51
2017-04-15T06:44:51.416Z,9.47
2017-04-15T06:46:03.969Z,9.48
2017-04-15T06:47:16.205Z,9.49
2017-04-15T06:48:28.810Z,9.51
2017-04-15T06:49:41.225Z,9.48
2017-04-15T06:50:53.754Z,9.55
2017-04-15T06:52:06.024Z,9.52
2017-04-15T06:53:18.559Z,9.51
2017-04-15T06:54:31.134Z,9.51
2017-04-15T06:55:43.658Z,9.51
2017-04-15T06:56:56.158Z,9.54
2017-04-15T06:58:08.674Z,9.64
2017-04-15T06:59:20.900Z,9.56
2017-04-15T07:00:33.421Z,9.62
2017-04-15T07:01:45.966Z,9.58
2017-04-15T07:02:58.508Z,9.59
2017-04-15T07:04:10.730Z,9.7
2017-04-15T07:05:23.244Z,9.67
2017-04-15T07:06:35.807Z,9.69
2017-04-15T07:07:48.363Z,9.77
2017-04-15T07:09:00.764Z,9.8
2017-04-15T07:10:13.287Z,9.76
2017-04-15T07:11:26.355Z,9.77
2017-04-15T07:12:38.869Z,9.77
2017-04-15T07:13:51.401Z,9.8
2017-04-15T07:15:03.968Z,9.84
2017-04-15T07:16:16.518Z,9.88
2017-04-15T07:17:29.026Z,9.84
2017-04-15T07:18:41.265Z,9.88
2017-04-15T07:19:53.826Z,9.88
2017-04-15T07:21:06.344Z,9.92
2017-04-15T07:22:19.139Z,9.97
2017-04-15T07:23:31.682Z,9.95
2017-04-15T07:24:44.260Z,10.09
2017-04-15T07:25:56.773Z,10.13
2017-04-15T07:27:09.302Z,10.18
2017-04-15T07:28:21.840Z,10.24
2017-04-15T07:29:34.619Z,10.27
2017-04-15T07:30:47.166Z,10.3
2017-04-15T07:31:59.930Z,10.38
2017-04-15T07:33:12.174Z,10.43
2017-04-15T07:34:24.699Z,10.42
2017-04-15T07:35:37.244Z,10.41
2017-04-15T07:36:49.771Z,10.42
2017-04-15T07:38:01.993Z,10.51
2017-04-15T07:39:14.529Z,10.53
2017-04-15T07:40:27.050Z,10.48
2017-04-15T07:41:39.606Z,10.53
2017-04-15T07:42:52.152Z,10.48
2017-04-15T07:44:04.688Z,10.51
2017-04-15T07:45:17.221Z,10.51
2017-04-15T07:46:29.785Z,10.46
2017-04-15T07:47:42.004Z,10.48
2017-04-15T07:48:54.803Z,10.46
2017-04-15T07:50:07.046Z,10.38
2017-04-15T07:51:19.298Z,10.33
2017-04-15T07:52:31.924Z,10.33
2017-04-15T07:53:44.183Z,10.27
2017-04-15T07:54:56.686Z,10.21
2017-04-15T07:56:08.907Z,10.15
2017-04-15T07:57:21.135Z,10.12
2017-04-15T07:58:33.698Z,9.97
2017-04-15T07:59:45.867Z,10.02
2017-04-15T08:00:58.387Z,9.92
2017-04-15T08:02:10.915Z,9.84
2017-04-15T08:03:23.447Z,9.76
2017-04-15T08:04:35.960Z,9.74
2017-04-15T08:05:48.501Z,9.62
2017-04-15T08:07:01.027Z,9.54
2017-04-15T08:08:13.234Z,9.52
2017-04-15T08:09:25.781Z,9.37
2017-04-15T08:10:38.662Z,9.29
2017-04-15T08:11:50.918Z,9.24
2017-04-15T08:13:03.432Z,9.16
2017-04-15T08:14:15.990Z,9.16
2017-04-15T08:15:28.506Z,9.13
2017-04-15T08:16:41.084Z,9.13
2017-04-15T08:17:53.608Z,9.11
2017-04-15T08:19:06.168Z,9.08
2017-04-15T08:20:18.107Z,8.99
2017-04-15T08:21:30.910Z,9.03
2017-04-15T08:22:43.443Z,8.93
2017-04-15T08:23:55.985Z,8.93
2017-04-15T08:25:08.505Z,8.96
2017-04-15T08:26:21.030Z,8.97
2017-04-15T08:27:33.573Z,8.92
2017-04-15T08:28:46.114Z,8.9
2017-04-15T08:29:58.789Z,8.84
2017-04-15T08:31:11.307Z,8.89
2017-04-15T08:32:23.509Z,8.77
2017-04-15T08:33:36.070Z,8.79
2017-04-15T08:34:48.294Z,8.81
2017-04-15T08:36:00.818Z,8.79
2017-04-15T08:37:13.043Z,8.78
2017-04-15T08:38:25.565Z,8.84
2017-04-15T08:39:38.127Z,8.89
2017-04-15T08:40:50.353Z,8.86
2017-04-15T08:42:02.898Z,8.9
2017-04-15T08:43:15.664Z,9
2017-04-15T08:44:28.191Z,8.97
2017-04-15T08:45:40.761Z,8.95
2017-04-15T08:46:53.288Z,8.99
2017-04-15T08:48:05.821Z,9.03
2017-04-15T08:49:18.476Z,8.96
2017-04-15T08:50:31.019Z,9.02
2017-04-15T08:51:43.582Z,9.12
2017-04-15T08:52:56.132Z,9.08
2017-04-15T08:54:08.674Z,9.03
2017-04-15T08:55:20.924Z,9.09
2017-04-15T08:56:33.467Z,9.09
2017-04-15T08:57:45.995Z,9.09
2017-04-15T08:58:58.520Z,9.13
2017-04-15T09:00:11.008Z,9.19
2017-04-15T09:01:23.560Z,9.26
2017-04-15T09:02:35.802Z,9.29
2017-04-15T09:03:48.343Z,9.29
2017-04-15T09:05:00.865Z,9.33
2017-04-15T09:06:13.412Z,9.39
2017-04-15T09:07:25.962Z,9.36
2017-04-15T09:08:38.708Z,9.39
2017-04-15T09:09:51.332Z,9.51
2017-04-15T09:11:03.875Z,9.52
2017-04-15T09:12:16.389Z,9.52
2017-04-15T09:13:28.921Z,9.42
2017-04-15T09:14:41.483Z,9.54
2017-04-15T09:15:54.029Z,9.56
2017-04-15T09:17:06.540Z,9.55
2017-04-15T09:18:18.478Z,9.49
2017-04-15T09:19:31.016Z,9.44
2017-04-15T09:20:43.536Z,9.47
2017-04-15T09:21:56.106Z,9.48
2017-04-15T09:23:08.309Z,9.31
2017-04-15T09:24:20.547Z,9.34
2017-04-15T09:25:33.060Z,9.31
2017-04-15T09:26:45.914Z,9.29
2017-04-15T09:27:58.467Z,9.34
2017-04-15T09:29:10.989Z,9.31
2017-04-15T09:30:23.515Z,9.29
2017-04-15T09:31:36.085Z,9.33
2017-04-15T09:32:48.323Z,9.34
2017-04-15T09:34:00.825Z,9.29
2017-04-15T09:35:13.348Z,9.31
2017-04-15T09:36:25.882Z,9.36
2017-04-15T09:37:38.414Z,9.34
2017-04-15T09:38:50.981Z,9.36
2017-04-15T09:40:03.519Z,9.33
2017-04-15T09:41:15.753Z,9.27
2017-04-15T09:42:28.273Z,9.36
2017-04-15T09:43:40.835Z,9.27
2017-04-15T09:44:53.460Z,9.26
2017-04-15T09:46:05.987Z,9.29
2017-04-15T09:47:18.645Z,9.42
2017-04-15T09:48:31.466Z,9.36
2017-04-15T09:49:44.010Z,9.36
2017-04-15T09:50:56.256Z,9.36
2017-04-15T09:52:08.765Z,9.34
2017-04-15T09:53:21.310Z,9.42
2017-04-15T09:54:33.812Z,9.31
2017-04-15T09:55:46.352Z,9.34
2017-04-15T09:56:58.894Z,9.33
2017-04-15T09:58:10.815Z,9.34
2017-04-15T09:59:23.262Z,9.44
2017-04-15T10:00:35.783Z,9.48
2017-04-15T10:01:48.006Z,9.48
2017-04-15T10:03:00.569Z,9.54
2017-04-15T10:04:12.823Z,9.45
2017-04-15T10:05:25.094Z,9.49
2017-04-15T10:06:37.637Z,9.45
2017-04-15T10:07:49.853Z,9.49
2017-04-15T10:09:02.371Z,9.45
2017-04-15T10:10:14.902Z,9.39
2017-04-15T10:11:27.437Z,9.34
2017-04-15T10:12:39.966Z,9.36
2017-04-15T10:13:52.493Z,9.36
2017-04-15T10:15:04.714Z,9.3
2017-04-15T10:16:17.258Z,9.36
2017-04-15T10:17:29.801Z,9.27
2017-04-15T10:18:42.346Z,9.37
2017-04-15T10:19:54.859Z,9.29
2017-04-15T10:21:07.367Z,9.3
2017-04-15T10:22:20.227Z,9.34
2017-04-15T10:23:33.323Z,9.36
2017-04-15T10:24:46.092Z,9.48
2017-04-15T10:25:58.625Z,9.44
2017-04-15T10:27:11.150Z,9.47
2017-04-15T10:28:23.706Z,9.47
2017-04-15T10:29:36.255Z,9.51
2017-04-15T10:30:48.775Z,9.54
2017-04-15T10:32:01.268Z,9.63
2017-04-15T10:33:13.831Z,9.54
2017-04-15T10:34:26.043Z,9.52
2017-04-15T10:35:38.259Z,9.62
2017-04-15T10:36:50.805Z,9.58
2017-04-15T10:38:03.308Z,9.55
2017-04-15T10:39:15.547Z,9.58
2017-04-15T10:40:28.123Z,9.59
2017-04-15T10:41:40.346Z,9.52
2017-04-15T10:42:52.907Z,9.62
2017-04-15T10:44:05.638Z,9.63
2017-04-15T10:45:18.151Z,9.56
2017-04-15T10:46:30.670Z,9.59
2017-04-15T10:47:42.904Z,9.63
2017-04-15T10:48:55.448Z,9.52
2017-04-15T10:50:07.694Z,9.56
2017-04-15T10:51:20.227Z,9.56
2017-04-15T10:52:32.777Z,9.63
2017-04-15T10:53:45.302Z,9.55
2017-04-15T10:54:57.823Z,9.66
2017-04-15T10:56:10.045Z,9.62
2017-04-15T10:57:22.570Z,9.64
2017-04-15T10:58:35.129Z,9.62
2017-04-15T10:59:47.386Z,9.63
2017-04-15T11:00:59.949Z,9.69
2017-04-15T11:02:12.465Z,9.73
2017-04-15T11:03:25.119Z,9.74
2017-04-15T11:04:37.644Z,9.77
2017-04-15T11:05:50.168Z,9.9
2017-04-15T11:07:02.682Z,9.9
2017-04-15T11:08:15.195Z,9.88
2017-04-15T11:09:27.723Z,10.03
2017-04-15T11:10:40.245Z,10.03
2017-04-15T11:11:52.773Z,9.95
2017-04-15T11:13:05.294Z,9.99
2017-04-15T11:14:17.828Z,9.97
2017-04-15T11:15:30.383Z,9.95
2017-04-15T11:16:42.604Z,9.95
2017-04-15T11:17:55.174Z,10.07
2017-04-15T11:19:07.738Z,10.06
2017-04-15T11:20:20.310Z,9.95
2017-04-15T11:21:33.037Z,9.97
2017-04-15T11:22:45.260Z,10
2017-04-15T11:23:57.771Z,10
2017-04-15T11:25:10.312Z,10.07
2017-04-15T11:26:22.844Z,10.09
2017-04-15T11:27:35.393Z,10.07
2017-04-15T11:28:47.936Z,10.1
2017-04-15T11:30:00.475Z,10.03
2017-04-15T11:31:12.696Z,10.07
2017-04-15T11:32:24.917Z,9.99
2017-04-15T11:33:37.462Z,10.06
2017-04-15T11:34:49.962Z,9.97
2017-04-15T11:36:02.476Z,10.03
2017-04-15T11:37:14.725Z,9.99
2017-04-15T11:38:26.943Z,9.95
2017-04-15T11:39:39.447Z,10.02
2017-04-15T11:40:51.985Z,10.02
2017-04-15T11:42:04.572Z,10.05
2017-04-15T11:43:17.262Z,10.07
2017-04-15T11:44:29.230Z,10.09
2017-04-15T11:45:41.776Z,9.95
2017-04-15T11:46:54.272Z,10.06
2017-04-15T11:48:06.494Z,10.07
2017-04-15T11:49:19.013Z,10.09
2017-04-15T11:50:31.255Z,10.12
2017-04-15T11:51:43.810Z,10.09
2017-04-15T11:52:56.359Z,10.09
2017-04-15T11:54:09.126Z,10.15
2017-04-15T11:55:21.672Z,10.23
2017-04-15T11:56:34.189Z,10.18
2017-04-15T11:57:46.728Z,10.21
2017-04-15T11:58:59.303Z,10.2
2017-04-15T12:00:11.531Z,10.28
2017-04-15T12:01:24.327Z,10.25
2017-04-15T12:02:36.869Z,10.33
2017-04-15T12:03:49.443Z,10.33
2017-04-15T12:05:01.978Z,10.42
2017-04-15T12:06:14.508Z,10.3
2017-04-15T12:07:27.049Z,10.46
2017-04-15T12:08:39.569Z,10.36
2017-04-15T12:09:52.080Z,10.45
2017-04-15T12:11:04.615Z,10.48
2017-04-15T12:12:17.141Z,10.51
2017-04-15T12:13:29.358Z,10.61
2017-04-15T12:14:41.846Z,10.61
2017-04-15T12:15:54.402Z,10.76
2017-04-15T12:17:06.320Z,10.79
2017-04-15T12:18:17.644Z,10.83
2017-04-15T12:19:30.190Z,10.77
2017-04-15T12:20:42.961Z,10.89
2017-04-15T12:21:55.482Z,11.05
2017-04-15T12:23:08.042Z,11.13
2017-04-15T12:24:20.552Z,11.27
2017-04-15T12:25:32.762Z,11.31
2017-04-15T12:26:45.315Z,11.53
2017-04-15T12:27:57.840Z,11.74
2017-04-15T12:29:10.383Z,11.78
2017-04-15T12:30:22.902Z,11.85
2017-04-15T12:31:35.429Z,11.93
2017-04-15T12:32:47.970Z,11.88
2017-04-15T12:34:00.518Z,11.91
2017-04-15T12:35:13.027Z,11.96
2017-04-15T12:36:24.973Z,11.99
2017-04-15T12:37:37.202Z,12.02
2017-04-15T12:38:48.518Z,11.95
2017-04-15T12:40:01.046Z,12.07
2017-04-15T12:41:13.305Z,11.97
2017-04-15T12:42:25.838Z,12.07
2017-04-15T12:43:38.380Z,11.97
2017-04-15T12:44:50.898Z,11.97
2017-04-15T12:46:03.439Z,12.03
2017-04-15T12:47:15.388Z,11.81
2017-04-15T12:48:27.014Z,11.89
2017-04-15T12:49:39.258Z,11.95
2017-04-15T12:50:51.811Z,11.83
2017-04-15T12:52:04.381Z,11.83
2017-04-15T12:53:16.943Z,11.78
2017-04-15T12:54:29.214Z,11.91
2017-04-15T12:55:41.765Z,11.89
2017-04-15T12:56:54.285Z,11.93
2017-04-15T12:58:06.805Z,11.93
2017-04-15T12:59:19.257Z,11.83
2017-04-15T13:00:31.800Z,11.65
2017-04-15T13:01:44.411Z,11.49
2017-04-15T13:02:56.965Z,11.13
2017-04-15T13:04:09.482Z,10.77
2017-04-15T13:05:21.727Z,10.51
2017-04-15T13:06:34.249Z,10.49
2017-04-15T13:07:46.768Z,10.31
2017-04-15T13:08:59.272Z,10.12
2017-04-15T13:10:11.808Z,9.91
2017-04-15T13:11:24.036Z,9.81
2017-04-15T13:12:36.258Z,9.67
2017-04-15T13:13:48.778Z,9.49
2017-04-15T13:15:01.299Z,9.45
2017-04-15T13:16:13.848Z,9.31
2017-04-15T13:17:26.085Z,9.18
2017-04-15T13:18:38.316Z,9.18
2017-04-15T13:19:50.883Z,9.16
2017-04-15T13:21:03.421Z,9.18
2017-04-15T13:22:16.038Z,9.26
2017-04-15T13:23:28.566Z,9.36
2017-04-15T13:24:41.096Z,9.42
2017-04-15T13:25:53.617Z,9.42
2017-04-15T13:27:06.158Z,9.49
2017-04-15T13:28:18.697Z,9.56
2017-04-15T13:29:31.249Z,9.66
2017-04-15T13:30:43.763Z,9.76
2017-04-15T13:31:56.289Z,9.66
2017-04-15T13:33:08.816Z,9.73
2017-04-15T13:34:21.363Z,9.69
2017-04-15T13:35:33.922Z,9.73
2017-04-15T13:36:46.454Z,9.66
2017-04-15T13:37:58.982Z,9.64
2017-04-15T13:39:11.517Z,9.64
2017-04-15T13:40:24.166Z,9.58
2017-04-15T13:41:36.459Z,9.59
2017-04-15T13:42:48.701Z,9.62
2017-04-15T13:44:01.230Z,9.58
2017-04-15T13:45:13.771Z,9.56
2017-04-15T13:46:26.275Z,9.62
2017-04-15T13:47:38.838Z,9.63
2017-04-15T13:48:51.355Z,9.63
2017-04-15T13:50:03.573Z,9.66
2017-04-15T13:51:15.794Z,9.73
2017-04-15T13:52:28.347Z,9.7
2017-04-15T13:53:40.893Z,9.73
2017-04-15T13:54:53.424Z,9.73
2017-04-15T13:56:05.999Z,9.72
2017-04-15T13:57:18.560Z,9.76
2017-04-15T13:58:31.104Z,9.73
2017-04-15T13:59:44.068Z,9.77
2017-04-15T14:00:56.643Z,9.73
2017-04-15T14:02:09.139Z,9.82
2017-04-15T14:03:21.360Z,9.73
2017-04-15T14:04:34.201Z,9.74
2017-04-15T14:05:46.745Z,9.8
2017-04-15T14:06:59.294Z,9.82
2017-04-15T14:08:11.787Z,9.73
2017-04-15T14:09:24.568Z,9.81
2017-04-15T14:10:37.091Z,9.74
2017-04-15T14:11:49.602Z,9.76
2017-04-15T14:13:01.846Z,9.76
2017-04-15T14:14:14.423Z,9.74
2017-04-15T14:15:26.922Z,9.85
2017-04-15T14:16:39.582Z,9.88
2017-04-15T14:17:52.361Z,9.88
2017-04-15T14:19:04.905Z,9.88
2017-04-15T14:20:17.703Z,9.97
2017-04-15T14:21:29.944Z,10.1
2017-04-15T14:22:42.445Z,10.2
2017-04-15T14:23:54.945Z,10.27
2017-04-15T14:25:07.155Z,10.31
2017-04-15T14:26:19.728Z,10.41
2017-04-15T14:27:32.246Z,10.48
2017-04-15T14:28:44.774Z,10.59
2017-04-15T14:29:57.319Z,10.68
2017-04-15T14:31:09.558Z,10.77
2017-04-15T14:32:22.111Z,10.83
2017-04-15T14:33:34.633Z,10.84
2017-04-15T14:34:47.271Z,10.87
2017-04-15T14:35:59.921Z,11
2017-04-15T14:37:12.473Z,11.08
2017-04-15T14:38:24.765Z,11.16
2017-04-15T14:39:37.290Z,11.23
2017-04-15T14:40:49.828Z,11.23
2017-04-15T14:42:02.325Z,11.33
2017-04-15T14:43:14.868Z,11.37
2017-04-15T14:44:27.422Z,11.34
2017-04-15T14:45:39.646Z,11.34
2017-04-15T14:46:52.204Z,11.38
2017-04-15T14:48:04.730Z,11.38
2017-04-15T14:49:17.280Z,11.33
2017-04-15T14:50:29.826Z,11.23
2017-04-15T14:51:42.446Z,11.15
2017-04-15T14:52:55.042Z,11.04
2017-04-15T14:54:07.548Z,11.02
2017-04-15T14:55:20.076Z,10.9
2017-04-15T14:56:32.301Z,10.94
2017-04-15T14:57:44.876Z,10.77
2017-04-15T14:58:57.414Z,10.79
2017-04-15T15:00:09.669Z,10.71
2017-04-15T15:01:22.180Z,10.64
2017-04-15T15:02:34.163Z,10.64
2017-04-15T15:03:46.955Z,10.61
2017-04-15T15:04:59.504Z,10.58
2017-04-15T15:06:12.040Z,10.57
2017-04-15T15:07:24.564Z,10.59
2017-04-15T15:08:36.797Z,10.55
2017-04-15T15:09:49.364Z,10.59
2017-04-15T15:11:01.934Z,10.59
2017-04-15T15:12:14.456Z,10.57
2017-04-15T15:13:26.706Z,10.71
2017-04-15T15:14:39.242Z,10.64
2017-04-15T15:15:51.815Z,10.64
2017-04-15T15:17:04.063Z,10.68
2017-04-15T15:18:16.616Z,10.61
2017-04-15T15:19:29.131Z,10.69
2017-04-15T15:20:41.669Z,10.68
2017-04-15T15:21:54.218Z,10.64
2017-04-15T15:23:06.461Z,10.65
2017-04-15T15:24:18.966Z,10.67
2017-04-15T15:25:31.510Z,10.69
2017-04-15T15:26:43.748Z,10.67
2017-04-15T15:27:56.494Z,10.69
2017-04-15T15:29:09.019Z,10.76
2017-04-15T15:30:21.540Z,10.79
2017-04-15T15:31:34.053Z,10.72
2017-04-15T15:32:46.582Z,10.83
2017-04-15T15:33:59.106Z,10.82
2017-04-15T15:35:11.352Z,10.77
2017-04-15T15:36:23.899Z,10.79
2017-04-15T15:37:36.433Z,10.79
2017-04-15T15:38:48.965Z,10.84
2017-04-15T15:40:01.501Z,10.94
2017-04-15T15:41:14.053Z,10.95
2017-04-15T15:42:26.299Z,10.89
2017-04-15T15:43:38.496Z,10.89
2017-04-15T15:44:51.018Z,10.92
2017-04-15T15:46:03.332Z,10.92
2017-04-15T15:47:15.583Z,10.89
2017-04-15T15:48:27.810Z,10.94
2017-04-15T15:49:40.371Z,10.89
2017-04-15T15:50:52.917Z,10.94
2017-04-15T15:52:05.444Z,10.86
2017-04-15T15:53:17.966Z,10.94
2017-04-15T15:54:30.486Z,10.92
2017-04-15T15:55:42.723Z,10.97
2017-04-15T15:56:54.670Z,11
2017-04-15T15:58:07.224Z,10.97